createdAt,value
2022-09-21T00:01:23.790Z,99.69
2022-09-21T00:03:59.787Z,99.16
2022-09-21T00:06:30.690Z,100.00
2022-09-21T00:08:57.715Z,98.13
2022-09-21T00:11:28.928Z,99.48
2022-09-21T00:14:07.123Z,99.38
2022-09-21T00:16:34.956Z,99.96
2022-09-21T00:19:02.468Z,99.60
2022-09-21T00:21:29.580Z,99.48
2022-09-21T00:23:57.054Z,99.83
2022-09-21T00:26:27.371Z,99.56
2022-09-21T00:29:00.497Z,99.05
2022-09-21T00:31:31.015Z,99.66
2022-09-21T00:34:00.029Z,99.57
2022-09-21T00:36:28.106Z,99.55
2022-09-21T00:39:00.874Z,99.38
2022-09-21T00:41:30.845Z,99.62
2022-09-21T00:44:21.947Z,98.96
2022-09-21T00:46:51.262Z,98.23
2022-09-21T00:49:20.227Z,99.45
2022-09-21T00:51:48.891Z,99.39
2022-09-21T00:54:32.610Z,98.83
2022-09-21T00:57:02.805Z,99.57
2022-09-21T00:59:34.041Z,99.37
2022-09-21T01:02:01.414Z,99.51
2022-09-21T01:04:29.214Z,99.52
2022-09-21T01:07:00.939Z,99.60
2022-09-21T01:09:28.653Z,99.25
2022-09-21T01:12:36.571Z,98.34
2022-09-21T01:15:38.294Z,98.33
2022-09-21T01:18:29.319Z,98.89
2022-09-21T01:21:23.397Z,98.33
2022-09-21T01:24:21.160Z,98.54
2022-09-21T01:27:28.009Z,98.16
2022-09-21T01:30:15.314Z,98.53
2022-09-21T01:33:19.673Z,98.43
2022-09-21T01:36:01.778Z,99.14
2022-09-21T01:38:35.671Z,99.73
2022-09-21T01:41:07.054Z,99.76
2022-09-21T01:43:40.251Z,99.32
2022-09-21T01:46:16.313Z,99.24
2022-09-21T01:48:50.103Z,99.34
2022-09-21T01:51:20.305Z,99.26
2022-09-21T01:53:54.013Z,99.56
2022-09-21T01:56:28.163Z,99.17
2022-09-21T01:59:28.038Z,98.28
2022-09-21T02:02:04.917Z,99.12
2022-09-21T02:04:35.000Z,99.42
2022-09-21T02:07:02.467Z,99.69
2022-09-21T02:09:29.601Z,99.32
2022-09-21T02:11:58.336Z,99.72
2022-09-21T02:14:26.212Z,99.93
2022-09-21T02:17:16.209Z,98.89
2022-09-21T02:20:03.048Z,98.57
2022-09-21T02:22:49.335Z,98.70
2022-09-21T02:25:29.710Z,99.06
2022-09-21T02:28:06.819Z,99.25
2022-09-21T02:30:35.858Z,99.46
2022-09-21T02:33:19.685Z,98.48
2022-09-21T02:36:30.599Z,98.54
2022-09-21T02:39:15.781Z,98.90
2022-09-21T02:41:54.555Z,98.74
2022-09-21T02:44:33.058Z,99.20
2022-09-21T02:47:11.490Z,99.46
2022-09-21T02:49:48.695Z,99.11
2022-09-21T02:52:18.149Z,99.67
2022-09-21T02:54:50.542Z,99.44
2022-09-21T02:57:21.279Z,99.56
2022-09-21T02:59:49.320Z,99.60
2022-09-21T03:02:16.253Z,99.94
2022-09-21T03:04:49.961Z,99.50
2022-09-21T03:07:17.298Z,99.80
2022-09-21T03:09:44.518Z,99.51
2022-09-21T03:12:11.610Z,99.86
2022-09-21T03:14:39.046Z,100.00
2022-09-21T03:17:06.009Z,99.83
2022-09-21T03:19:32.945Z,100.00
2022-09-21T03:22:00.080Z,100.00
2022-09-21T03:24:45.355Z,100.00
2022-09-21T03:27:19.021Z,99.42
2022-09-21T03:29:46.526Z,99.72
2022-09-21T03:32:14.330Z,99.90
2022-09-21T03:34:41.661Z,99.68
2022-09-21T03:37:09.891Z,99.92
2022-09-21T03:39:36.797Z,100.00
2022-09-21T03:42:05.082Z,100.00
2022-09-21T03:44:32.123Z,100.00
2022-09-21T03:54:05.409Z,99.58
2022-09-21T03:56:31.662Z,99.58
2022-09-21T03:58:58.002Z,99.56
2022-09-21T04:01:24.316Z,99.52
2022-09-21T04:03:51.320Z,99.47
2022-09-21T04:06:18.372Z,100.00
2022-09-21T04:08:45.338Z,99.98
2022-09-21T04:11:15.115Z,99.77
2022-09-21T04:13:42.530Z,99.95
2022-09-21T04:16:11.350Z,99.92
2022-09-21T04:18:38.639Z,99.98
2022-09-21T04:21:06.142Z,99.92
2022-09-21T04:23:33.412Z,99.69
2022-09-21T04:26:00.384Z,99.95
2022-09-21T04:28:27.274Z,100.00
2022-09-21T04:30:55.598Z,100.00
2022-09-21T04:33:23.810Z,100.00
2022-09-21T04:35:56.947Z,99.48
2022-09-21T04:38:23.903Z,100.00
2022-09-21T04:40:57.853Z,100.00
2022-09-21T04:43:25.488Z,100.00
2022-09-21T04:45:52.480Z,100.00
2022-09-21T04:48:19.481Z,100.00
2022-09-21T04:50:51.010Z,100.00
2022-09-21T04:53:17.938Z,100.00
2022-09-21T04:55:46.263Z,100.00
2022-09-21T04:58:13.305Z,100.00
2022-09-21T05:00:40.306Z,100.00
2022-09-21T05:03:07.214Z,100.00
2022-09-21T05:05:34.165Z,100.00
2022-09-21T05:08:01.371Z,99.94
2022-09-21T05:10:28.306Z,100.00
2022-09-21T05:12:55.209Z,100.00
2022-09-21T05:15:22.229Z,99.97
2022-09-21T05:17:49.151Z,100.00
2022-09-21T05:20:16.184Z,100.00
2022-09-21T05:22:43.118Z,100.00
2022-09-21T05:25:10.350Z,100.00
2022-09-21T05:27:37.357Z,99.74
2022-09-21T05:30:06.252Z,99.82
2022-09-21T05:33:01.226Z,99.25
2022-09-21T05:36:04.857Z,98.91
2022-09-21T05:38:32.332Z,99.68
2022-09-21T05:41:00.857Z,99.70
2022-09-21T05:43:28.166Z,100.00
2022-09-21T05:46:13.115Z,99.41
2022-09-21T05:48:45.579Z,99.93
2022-09-21T05:51:53.321Z,98.97
2022-09-21T05:54:48.703Z,99.07
2022-09-21T05:57:30.786Z,100.00
2022-09-21T06:00:21.113Z,99.14
2022-09-21T06:03:17.793Z,99.39
2022-09-21T06:05:45.263Z,100.00
2022-09-21T06:08:12.211Z,100.00
2022-09-21T06:10:39.180Z,100.00
2022-09-21T06:13:06.077Z,100.00
2022-09-21T06:15:38.248Z,100.00
2022-09-21T06:18:06.878Z,100.00
2022-09-21T06:20:34.149Z,100.00
2022-09-21T06:23:07.743Z,99.86
2022-09-21T06:25:35.203Z,100.00
2022-09-21T06:28:11.464Z,99.96
2022-09-21T06:30:40.767Z,100.00
2022-09-21T06:33:08.373Z,100.00
2022-09-21T06:35:36.373Z,100.00
2022-09-21T06:38:08.117Z,100.00
2022-09-21T06:40:37.149Z,100.00
2022-09-21T06:43:05.218Z,100.00
2022-09-21T06:45:33.411Z,100.00
2022-09-21T06:48:00.507Z,100.00
2022-09-21T06:50:27.545Z,100.00
2022-09-21T06:52:54.693Z,100.00
2022-09-21T06:55:21.697Z,100.00
2022-09-21T06:57:50.955Z,100.00
2022-09-21T07:00:18.155Z,100.00
2022-09-21T07:02:45.672Z,100.00
2022-09-21T07:05:13.250Z,100.00
2022-09-21T07:07:40.372Z,100.00
2022-09-21T07:10:13.237Z,100.00
2022-09-21T07:12:43.612Z,100.00
2022-09-21T07:15:10.915Z,100.00
2022-09-21T07:17:39.748Z,100.00
2022-09-21T07:20:08.215Z,100.00
2022-09-21T07:22:36.096Z,100.00
2022-09-21T07:25:05.478Z,100.00
2022-09-21T07:27:33.736Z,100.00
2022-09-21T07:30:00.659Z,100.00
2022-09-21T07:32:27.611Z,100.00
2022-09-21T07:34:57.042Z,100.00
2022-09-21T07:37:25.261Z,100.00
2022-09-21T07:39:53.095Z,100.00
2022-09-21T07:42:22.573Z,100.00
2022-09-21T07:44:50.978Z,100.00
2022-09-21T07:47:18.169Z,100.00
2022-09-21T07:49:46.884Z,100.00
2022-09-21T07:52:15.508Z,100.00
2022-09-21T07:54:42.500Z,100.00
2022-09-21T07:57:27.773Z,100.00
2022-09-21T07:59:58.093Z,100.00
2022-09-21T08:02:25.097Z,100.00
2022-09-21T08:04:52.146Z,100.00
2022-09-21T08:07:19.149Z,100.00
2022-09-21T08:09:49.258Z,100.00
2022-09-21T08:12:18.578Z,100.00
2022-09-21T08:14:45.924Z,100.00
2022-09-21T08:17:13.590Z,100.00
2022-09-21T08:19:40.679Z,100.00
2022-09-21T08:22:07.732Z,100.00
2022-09-21T08:24:35.717Z,100.00
2022-09-21T08:27:02.691Z,100.00
2022-09-21T08:29:30.241Z,100.00
2022-09-21T08:31:57.951Z,100.00
2022-09-21T08:34:25.008Z,100.00
2022-09-21T08:36:55.508Z,100.00
2022-09-21T08:39:23.766Z,100.00
2022-09-21T08:42:35.903Z,100.00
2022-09-21T08:45:11.547Z,100.00
2022-09-21T08:47:50.849Z,100.00
2022-09-21T08:50:48.290Z,100.00
2022-09-21T08:53:36.481Z,100.00
2022-09-21T08:56:03.854Z,100.00
2022-09-21T08:58:32.749Z,100.00
2022-09-21T09:01:20.024Z,100.00
2022-09-21T09:03:49.722Z,100.00
2022-09-21T09:06:49.011Z,100.00
2022-09-21T09:10:14.703Z,100.00
2022-09-21T09:13:10.879Z,100.00
2022-09-21T09:15:49.091Z,100.00
2022-09-21T09:18:53.940Z,100.00
2022-09-21T09:21:39.396Z,100.00
2022-09-21T09:24:14.873Z,100.00
2022-09-21T09:27:15.020Z,100.00
2022-09-21T09:30:05.163Z,100.00
2022-09-21T09:32:44.490Z,100.00
2022-09-21T09:35:43.893Z,100.00
2022-09-21T09:38:51.532Z,100.00
2022-09-21T09:41:38.659Z,100.00
2022-09-21T09:44:39.632Z,100.00
2022-09-21T09:47:47.622Z,100.00
2022-09-21T09:50:38.791Z,100.00
2022-09-21T09:53:17.261Z,100.00
2022-09-21T09:55:48.858Z,100.00
2022-09-21T09:58:30.897Z,100.00
2022-09-21T10:00:59.044Z,100.00
2022-09-21T10:03:28.238Z,100.00
2022-09-21T10:05:55.278Z,100.00
2022-09-21T10:08:44.709Z,100.00
2022-09-21T10:11:14.978Z,100.00
2022-09-21T10:13:45.307Z,100.00
2022-09-21T10:16:30.570Z,100.00
2022-09-21T10:19:01.662Z,100.00
2022-09-21T10:21:44.504Z,100.00
2022-09-21T10:24:23.839Z,100.00
2022-09-21T10:26:56.715Z,100.00
2022-09-21T10:29:23.531Z,100.00
2022-09-21T10:31:56.207Z,100.00
2022-09-21T10:34:24.775Z,100.00
2022-09-21T10:36:55.987Z,100.00
2022-09-21T10:39:34.143Z,100.00
2022-09-21T10:42:15.848Z,100.00
2022-09-21T10:44:50.625Z,100.00
2022-09-21T10:47:36.011Z,100.00
2022-09-21T10:50:21.352Z,100.00
2022-09-21T10:52:49.866Z,100.00
2022-09-21T10:55:21.701Z,100.00
2022-09-21T10:57:50.235Z,100.00
2022-09-21T11:00:29.251Z,100.00
2022-09-21T11:03:00.743Z,100.00
2022-09-21T11:05:34.459Z,100.00
2022-09-21T11:08:20.103Z,100.00
2022-09-21T11:11:21.268Z,100.00
2022-09-21T11:13:57.451Z,100.00
2022-09-21T11:17:04.650Z,100.00
2022-09-21T11:19:35.341Z,100.00
2022-09-21T11:22:14.250Z,100.00
2022-09-21T11:25:05.550Z,100.00
2022-09-21T11:27:39.980Z,100.00
2022-09-21T11:30:18.899Z,100.00
2022-09-21T11:33:29.054Z,100.00
2022-09-21T11:36:09.113Z,100.00
2022-09-21T11:39:01.402Z,100.00
2022-09-21T11:41:59.007Z,100.00
2022-09-21T11:44:47.569Z,100.00
2022-09-21T11:47:39.379Z,100.00
2022-09-21T11:53:10.906Z,98.87
2022-09-21T11:56:31.318Z,100.00
2022-09-21T11:59:42.692Z,100.00
2022-09-21T12:02:28.175Z,99.71
2022-09-21T12:05:12.937Z,100.00
2022-09-21T12:08:04.227Z,99.47
2022-09-21T12:11:12.491Z,99.14
2022-09-21T12:14:07.785Z,99.41
2022-09-21T12:17:10.703Z,100.00
2022-09-21T12:20:01.301Z,98.43
2022-09-21T12:22:33.675Z,98.03
2022-09-21T12:25:18.071Z,98.64
2022-09-21T12:28:02.216Z,99.60
2022-09-21T12:30:31.852Z,97.34
2022-09-21T12:33:30.919Z,98.14
2022-09-21T12:36:16.854Z,97.04
2022-09-21T12:39:07.418Z,98.81
2022-09-21T12:41:53.782Z,98.73
2022-09-21T12:45:02.455Z,99.84
2022-09-21T12:48:07.405Z,100.00
2022-09-21T12:50:56.353Z,100.00
2022-09-21T12:53:28.600Z,99.70
2022-09-21T12:56:22.445Z,100.00
2022-09-21T12:59:36.368Z,100.00
2022-09-21T13:02:26.346Z,98.28
2022-09-21T13:05:11.802Z,95.14
2022-09-21T13:08:36.502Z,94.74
2022-09-21T13:11:07.894Z,94.77
2022-09-21T13:13:59.286Z,96.16
2022-09-21T13:16:39.944Z,97.59
2022-09-21T13:19:12.779Z,100.00
2022-09-21T13:21:40.623Z,95.71
2022-09-21T13:24:28.965Z,97.20
2022-09-21T13:26:59.911Z,92.15
2022-09-21T13:29:32.878Z,96.35
2022-09-21T13:32:11.933Z,94.27
2022-09-21T13:34:41.332Z,93.84
2022-09-21T13:37:11.253Z,93.36
2022-09-21T13:40:02.767Z,93.23
2022-09-21T13:42:32.527Z,92.13
2022-09-21T13:45:14.197Z,95.31
2022-09-21T13:47:45.660Z,94.86
2022-09-21T13:50:25.764Z,96.90
2022-09-21T13:52:59.187Z,95.71
2022-09-21T13:55:38.960Z,96.94
2022-09-21T13:58:41.410Z,97.38
2022-09-21T14:01:45.634Z,95.59
2022-09-21T14:04:32.687Z,96.01
2022-09-21T14:07:07.645Z,95.33
2022-09-21T14:09:52.964Z,95.38
2022-09-21T14:12:25.218Z,93.85
2022-09-21T14:15:16.507Z,92.55
2022-09-21T14:17:43.908Z,92.05
2022-09-21T14:20:38.577Z,94.26
2022-09-21T14:23:16.227Z,94.22
2022-09-21T14:25:57.889Z,93.91
2022-09-21T14:28:42.290Z,93.69
2022-09-21T14:31:34.737Z,95.66
2022-09-21T14:34:04.516Z,94.64
2022-09-21T14:36:44.499Z,94.55
2022-09-21T14:39:32.006Z,95.73
2022-09-21T14:42:23.079Z,94.54
2022-09-21T14:44:51.583Z,94.27
2022-09-21T14:47:30.214Z,89.39
2022-09-21T14:50:19.775Z,91.30
2022-09-21T14:53:07.943Z,91.97
2022-09-21T14:56:10.887Z,92.77
2022-09-21T14:58:59.343Z,94.62
2022-09-21T15:01:33.220Z,94.18
2022-09-21T15:04:51.243Z,96.34
2022-09-21T15:08:13.435Z,96.04
2022-09-21T15:11:14.843Z,95.12
2022-09-21T15:14:11.306Z,95.16
2022-09-21T15:16:45.883Z,92.60
2022-09-21T15:19:18.889Z,90.35
2022-09-21T15:22:10.016Z,87.54
2022-09-21T15:24:36.982Z,88.16
2022-09-21T15:27:17.849Z,90.51
2022-09-21T15:29:49.539Z,89.75
2022-09-21T15:32:41.998Z,89.18
2022-09-21T15:35:24.787Z,90.07
2022-09-21T15:37:52.463Z,88.74
2022-09-21T15:40:26.176Z,90.63
2022-09-21T15:43:11.825Z,90.83
2022-09-21T15:45:56.251Z,90.97
2022-09-21T15:48:34.080Z,89.75
2022-09-21T15:51:23.276Z,91.70
2022-09-21T15:53:56.615Z,90.14
2022-09-21T15:56:28.646Z,90.52
2022-09-21T15:59:08.879Z,90.15
2022-09-21T16:01:47.451Z,89.60
2022-09-21T16:04:21.366Z,87.93
2022-09-21T16:07:06.707Z,89.92
2022-09-21T16:09:45.416Z,89.37
2022-09-21T16:12:34.504Z,90.85
2022-09-21T16:15:25.938Z,88.67
2022-09-21T16:18:06.599Z,89.85
2022-09-21T16:20:47.797Z,90.17
2022-09-21T16:23:23.178Z,90.07
2022-09-21T16:25:58.450Z,89.42
2022-09-21T16:28:40.034Z,89.36
2022-09-21T16:31:36.234Z,89.94
2022-09-21T16:34:37.259Z,90.20
2022-09-21T16:37:28.709Z,90.74
2022-09-21T16:39:58.587Z,89.45
2022-09-21T16:42:32.736Z,90.34
2022-09-21T16:45:00.922Z,88.91
2022-09-21T16:47:28.844Z,89.01
2022-09-21T16:50:03.029Z,89.07
2022-09-21T16:52:31.059Z,88.63
2022-09-21T16:54:58.786Z,89.38
2022-09-21T16:57:26.633Z,88.75
2022-09-21T16:59:54.583Z,89.44
2022-09-21T17:02:21.543Z,89.49
2022-09-21T17:04:49.010Z,89.41
2022-09-21T17:07:17.079Z,89.10
2022-09-21T17:09:47.507Z,89.31
2022-09-21T17:12:17.799Z,89.25
2022-09-21T17:14:47.111Z,89.51
2022-09-21T17:17:23.159Z,89.16
2022-09-21T17:19:53.516Z,88.58
2022-09-21T17:22:20.579Z,88.33
2022-09-21T17:24:52.358Z,89.06
2022-09-21T17:27:22.951Z,88.33
2022-09-21T17:29:50.579Z,87.74
2022-09-21T17:32:21.401Z,88.46
2022-09-21T17:35:41.465Z,87.79
2022-09-21T17:38:13.949Z,87.68
2022-09-21T17:40:42.776Z,87.30
2022-09-21T17:43:50.063Z,87.17
2022-09-21T17:46:40.557Z,86.88
2022-09-21T17:49:11.370Z,87.64
2022-09-21T17:51:57.063Z,86.20
2022-09-21T17:54:25.901Z,87.08
2022-09-21T17:57:20.118Z,86.85
2022-09-21T17:59:58.746Z,86.98
2022-09-21T18:02:26.209Z,87.43
2022-09-21T18:05:02.815Z,87.00
2022-09-21T18:07:30.165Z,87.03
2022-09-21T18:09:57.484Z,87.07
2022-09-21T18:12:54.599Z,86.34
2022-09-21T18:15:36.591Z,86.50
2022-09-21T18:18:16.539Z,86.28
2022-09-21T18:21:19.747Z,86.06
2022-09-21T18:24:14.709Z,86.45
2022-09-21T18:26:45.656Z,86.87
2022-09-21T18:29:46.233Z,86.51
2022-09-21T18:32:34.125Z,86.50
2022-09-21T18:35:32.160Z,86.40
2022-09-21T18:38:32.367Z,86.43
2022-09-21T18:41:13.148Z,86.55
2022-09-21T18:44:04.170Z,86.76
2022-09-21T18:46:36.791Z,85.93
2022-09-21T18:49:17.543Z,86.70
2022-09-21T18:52:30.407Z,86.66
2022-09-21T18:54:57.569Z,87.24
2022-09-21T18:57:25.227Z,87.32
2022-09-21T18:59:52.495Z,87.64
2022-09-21T19:02:20.732Z,87.48
2022-09-21T19:04:49.191Z,87.05
2022-09-21T19:07:39.057Z,87.23
2022-09-21T19:10:43.538Z,86.80
2022-09-21T19:13:51.503Z,86.36
2022-09-21T19:17:01.897Z,86.70
2022-09-21T19:19:44.917Z,86.51
2022-09-21T19:22:31.109Z,86.85
2022-09-21T19:25:36.128Z,86.90
2022-09-21T19:28:48.814Z,86.85
2022-09-21T19:31:21.042Z,87.39
2022-09-21T19:33:51.802Z,87.10
2022-09-21T19:36:19.768Z,87.71
2022-09-21T19:38:47.028Z,87.41
2022-09-21T19:41:47.266Z,87.00
2022-09-21T19:44:31.135Z,86.56
2022-09-21T19:47:30.709Z,86.38
2022-09-21T19:50:17.830Z,86.47
2022-09-21T19:52:45.963Z,87.14
2022-09-21T19:55:35.435Z,87.86
2022-09-21T19:58:22.749Z,87.62
2022-09-21T20:00:56.681Z,86.92
2022-09-21T20:03:37.471Z,86.95
2022-09-21T20:06:38.747Z,86.67
2022-09-21T20:09:24.017Z,86.98
2022-09-21T20:12:22.265Z,86.54
2022-09-21T20:15:17.589Z,85.79
2022-09-21T20:17:58.628Z,86.84
2022-09-21T20:20:26.931Z,86.90
2022-09-21T20:22:56.873Z,86.19
2022-09-21T20:25:40.526Z,86.36
2022-09-21T20:28:11.183Z,86.61
2022-09-21T20:30:39.988Z,86.70
2022-09-21T20:33:14.254Z,86.87
2022-09-21T20:35:45.176Z,86.68
2022-09-21T20:38:12.046Z,85.53
2022-09-21T20:40:40.606Z,86.96
2022-09-21T20:43:09.598Z,85.91
2022-09-21T20:45:36.751Z,86.79
2022-09-21T20:48:13.544Z,86.29
2022-09-21T20:50:48.692Z,86.52
2022-09-21T20:53:16.753Z,86.78
2022-09-21T20:55:57.651Z,86.15
2022-09-21T20:58:25.104Z,86.42
2022-09-21T21:00:56.445Z,86.43
2022-09-21T21:03:25.704Z,86.13
2022-09-21T21:05:52.629Z,86.20
2022-09-21T21:08:19.617Z,86.35
2022-09-21T21:10:46.949Z,86.53
2022-09-21T21:13:13.938Z,86.62
2022-09-21T21:15:41.109Z,86.19
2022-09-21T21:18:11.479Z,86.46
2022-09-21T21:20:39.238Z,86.32
2022-09-21T21:23:08.285Z,86.43
2022-09-21T21:25:35.826Z,85.75
2022-09-21T21:28:03.174Z,86.07
2022-09-21T21:30:31.333Z,86.55
2022-09-21T21:32:58.329Z,86.42
2022-09-21T21:35:25.837Z,86.19
2022-09-21T21:37:52.945Z,86.42
2022-09-21T21:40:20.714Z,86.05
2022-09-21T21:42:47.699Z,85.81
2022-09-21T21:45:14.639Z,85.92
2022-09-21T21:47:41.766Z,86.08
2022-09-21T21:50:10.524Z,85.96
2022-09-21T21:52:38.174Z,86.37
2022-09-21T21:55:06.302Z,86.32
2022-09-21T21:57:33.332Z,85.70
2022-09-21T22:00:00.371Z,85.89
2022-09-21T22:02:29.254Z,86.20
2022-09-21T22:04:56.393Z,86.20
2022-09-21T22:07:23.563Z,85.82
2022-09-21T22:09:50.492Z,85.70
2022-09-21T22:12:17.506Z,85.68
2022-09-21T22:14:46.243Z,85.97
2022-09-21T22:17:13.480Z,85.69
2022-09-21T22:19:40.391Z,85.45
2022-09-21T22:22:07.411Z,85.61
2022-09-21T22:24:34.313Z,85.86
2022-09-21T22:27:01.268Z,85.36
2022-09-21T22:29:28.238Z,85.44
2022-09-21T22:31:55.515Z,85.43
2022-09-21T22:34:22.565Z,85.21
2022-09-21T22:36:50.610Z,85.62
2022-09-21T22:39:17.945Z,85.40
2022-09-21T22:41:44.872Z,85.63
2022-09-21T22:44:11.959Z,85.30
2022-09-21T22:46:39.310Z,85.91
2022-09-21T22:49:07.596Z,85.02
2022-09-21T22:51:35.579Z,85.58
2022-09-21T22:54:02.487Z,85.42
2022-09-21T22:56:32.330Z,85.66
2022-09-21T22:59:02.167Z,85.25
2022-09-21T23:01:36.177Z,85.59
2022-09-21T23:04:07.736Z,84.79
2022-09-21T23:06:37.663Z,85.46
2022-09-21T23:09:12.039Z,85.04
2022-09-21T23:11:43.192Z,85.98
2022-09-21T23:14:12.414Z,85.39
2022-09-21T23:16:39.530Z,85.94
2022-09-21T23:19:15.101Z,85.90
2022-09-21T23:21:52.994Z,85.29
2022-09-21T23:24:20.428Z,85.61
2022-09-21T23:26:47.904Z,85.57
2022-09-21T23:29:15.839Z,85.95
2022-09-21T23:31:45.998Z,85.53
2022-09-21T23:34:15.089Z,85.70
2022-09-21T23:36:43.199Z,86.00
2022-09-21T23:39:15.580Z,85.65
2022-09-21T23:41:43.485Z,85.68
2022-09-21T23:44:10.415Z,85.16
2022-09-21T23:46:40.078Z,85.56
2022-09-21T23:49:07.297Z,85.25
2022-09-21T23:51:34.949Z,85.67
2022-09-21T23:54:02.249Z,85.39
2022-09-21T23:56:30.206Z,85.38
2022-09-21T23:58:57.644Z,85.66
